Silver Hill, Massachusetts
Current Conditions -  °F | °C
As of 11:30 AM on Monday 24 Nov 2014 (Local Time) from KBED Reporting Station
Light Rain Light Rain  
Wind Chill: 62°   Ceiling: 1200
Heat Index: 62°   Visibility: 2.5mi
Dew Point: 61°   Wind: 14mph
Humidity: 96%   Direction: 180°S
Pressure: 29.65"   Gusts: 23mph
Location:  42.359°N, 71.3°W
Report Text: KBED 241630Z 18012G20KT 2 1/2SM R11/4000VP6000FT -RA BR SCT009 BKN012 OVC031 17/16 A2965 RMK AO2 P0002 T01670161
Loading
Personal Weather Stations






























Interactive Weather Map New forecast layout! Learn more

10-Day Weather Forecast

Advertisements
Track Severe Weather on mobile